Time;durP1;ratioP1;P1;durP2;ratioP2;P2;SDS_P1;SDS_P2;PMS_P1;PMS_P2;Temp;Humidity;BMP_temperature;BMP_pressure;BME280_temperature;BME280_humidity;BME280_pressure;Samples;Min_cycle;Max_cycle;Signal;HPM_P1;HPM_P2
2023/04/24 00:01:44;;;;;;;2.35;1.10;;;9.90;99.90;;;;;;5056828;28;20049;-71
2023/04/24 00:04:10;;;;;;;1.80;1.08;;;9.90;99.90;;;;;;5055427;28;20045;-72
2023/04/24 00:06:37;;;;;;;1.70;1.00;;;9.90;99.90;;;;;;5056623;28;20134;-73
2023/04/24 00:09:04;;;;;;;1.90;1.30;;;9.90;99.90;;;;;;5057272;28;20049;-72
2023/04/24 00:11:30;;;;;;;2.03;1.25;;;9.90;99.90;;;;;;5057013;28;20055;-71
2023/04/24 00:13:56;;;;;;;2.17;1.50;;;9.90;99.90;;;;;;5056848;28;20048;-75
2023/04/24 00:16:23;;;;;;;2.13;1.55;;;9.90;99.90;;;;;;5056253;28;20571;-72
2023/04/24 00:18:48;;;;;;;2.33;1.70;;;9.80;99.90;;;;;;5056505;28;20051;-72
2023/04/24 00:21:17;;;;;;;2.53;1.83;;;9.80;99.90;;;;;;5056180;28;20401;-71
2023/04/24 00:23:43;;;;;;;3.10;2.13;;;9.80;99.90;;;;;;5056697;28;20053;-71
2023/04/24 00:26:09;;;;;;;3.05;2.13;;;9.70;99.90;;;;;;5056108;28;20049;-71
2023/04/24 00:28:35;;;;;;;3.42;1.90;;;9.70;99.90;;;;;;5056364;28;20135;-71
2023/04/24 00:31:01;;;;;;;3.13;2.13;;;9.70;99.90;;;;;;5056871;28;20123;-71
2023/04/24 00:33:27;;;;;;;2.88;2.20;;;9.70;99.90;;;;;;5056334;28;20152;-71
2023/04/24 00:35:52;;;;;;;3.55;2.20;;;9.70;99.90;;;;;;5055055;28;20051;-71
2023/04/24 00:38:18;;;;;;;3.03;1.90;;;9.60;99.90;;;;;;5056282;28;20389;-71
2023/04/24 00:40:44;;;;;;;2.55;1.63;;;9.60;99.90;;;;;;5056117;28;20049;-71
2023/04/24 00:43:10;;;;;;;2.20;1.52;;;9.60;99.90;;;;;;5056130;28;20056;-73
2023/04/24 00:45:36;;;;;;;2.08;1.40;;;9.60;99.90;;;;;;5054952;28;20469;-71
2023/04/24 00:48:02;;;;;;;2.33;1.40;;;9.60;99.90;;;;;;5056557;28;20045;-71
2023/04/24 00:50:28;;;;;;;1.88;1.40;;;9.60;99.90;;;;;;5055018;28;20378;-71
2023/04/24 00:52:54;;;;;;;3.00;1.50;;;9.60;99.90;;;;;;5054967;28;20470;-71
2023/04/24 00:55:20;;;;;;;2.65;1.60;;;9.50;99.90;;;;;;5055414;28;20049;-72
2023/04/24 00:57:47;;;;;;;2.78;1.60;;;9.50;99.90;;;;;;5055858;28;20060;-71
2023/04/24 01:00:14;;;;;;;1.92;1.33;;;9.40;99.90;;;;;;5055635;28;20126;-72
2023/04/24 01:02:45;;;;;;;2.03;1.27;;;9.30;99.90;;;;;;5055817;28;20041;-71
2023/04/24 01:05:13;;;;;;;3.00;1.70;;;9.30;99.90;;;;;;5055579;28;20053;-71
2023/04/24 01:07:40;;;;;;;2.38;1.77;;;9.20;99.90;;;;;;5054621;28;20049;-72
2023/04/24 01:10:08;;;;;;;3.20;2.00;;;9.20;99.90;;;;;;5055878;28;20036;-72
2023/04/24 01:12:34;;;;;;;3.40;1.70;;;9.20;99.90;;;;;;5055582;28;20128;-74
2023/04/24 01:15:00;;;;;;;2.42;1.98;;;9.20;99.90;;;;;;5055580;28;20374;-72
2023/04/24 01:17:26;;;;;;;2.90;1.90;;;9.20;99.90;;;;;;5054177;28;20051;-71
2023/04/24 01:19:56;;;;;;;2.90;2.10;;;9.20;99.90;;;;;;5056174;28;20381;-72
2023/04/24 01:22:22;;;;;;;2.72;2.30;;;9.20;99.90;;;;;;5054704;28;20051;-73
2023/04/24 01:24:48;;;;;;;2.97;2.20;;;9.20;99.90;;;;;;5054837;28;20049;-72
2023/04/24 01:27:14;;;;;;;2.55;2.08;;;9.20;99.90;;;;;;5054604;28;20394;-75
2023/04/24 01:29:41;;;;;;;2.53;1.90;;;9.20;99.90;;;;;;5055027;28;20049;-71
2023/04/24 01:32:07;;;;;;;3.38;2.20;;;9.20;99.90;;;;;;5055134;28;20049;-71
2023/04/24 01:34:33;;;;;;;2.80;2.30;;;9.20;99.90;;;;;;5056502;28;20048;-72
2023/04/24 01:36:59;;;;;;;3.20;2.22;;;9.20;99.90;;;;;;5054112;28;20040;-71
2023/04/24 01:39:28;;;;;;;3.70;2.30;;;9.20;99.90;;;;;;5054986;28;20053;-71
2023/04/24 01:41:54;;;;;;;3.05;2.50;;;9.20;99.90;;;;;;5055072;28;20506;-72
2023/04/24 01:44:20;;;;;;;3.50;2.50;;;9.20;99.90;;;;;;5055748;28;20045;-72
2023/04/24 01:46:46;;;;;;;3.38;2.40;;;9.20;99.90;;;;;;5055218;28;20044;-72
2023/04/24 01:49:12;;;;;;;2.97;2.38;;;9.10;99.90;;;;;;5054923;28;20044;-71
2023/04/24 01:51:38;;;;;;;2.90;2.40;;;9.20;99.90;;;;;;5054904;28;20452;-72
2023/04/24 01:54:03;;;;;;;4.10;2.80;;;9.10;99.90;;;;;;5054721;28;20084;-72
2023/04/24 01:56:30;;;;;;;3.50;2.55;;;9.10;99.90;;;;;;5055513;28;20045;-72
2023/04/24 01:58:57;;;;;;;4.32;2.63;;;9.10;99.90;;;;;;5037089;28;20516;-72
2023/04/24 02:01:24;;;;;;;4.25;3.08;;;9.10;99.90;;;;;;5053931;28;20137;-71
2023/04/24 02:03:50;;;;;;;4.72;3.53;;;9.10;99.90;;;;;;5054554;28;20052;-74
2023/04/24 02:06:15;;;;;;;4.75;3.28;;;9.10;99.90;;;;;;5053714;28;20052;-73
2023/04/24 02:08:41;;;;;;;4.22;3.25;;;9.00;99.90;;;;;;5054463;28;20045;-71
2023/04/24 02:11:09;;;;;;;6.00;3.85;;;9.00;99.90;;;;;;5054432;28;20090;-72
2023/04/24 02:13:34;;;;;;;6.07;3.90;;;9.00;99.90;;;;;;5054450;28;20056;-72
2023/04/24 02:16:01;;;;;;;6.20;3.78;;;9.10;99.90;;;;;;5053946;28;20045;-72
2023/04/24 02:18:26;;;;;;;7.65;4.68;;;9.10;99.90;;;;;;5054295;28;20120;-72
2023/04/24 02:20:52;;;;;;;5.65;4.38;;;9.10;99.90;;;;;;5054221;28;20413;-72
2023/04/24 02:23:18;;;;;;;6.82;4.80;;;9.10;99.90;;;;;;5054737;28;20041;-72
2023/04/24 02:25:44;;;;;;;5.45;4.32;;;9.00;99.90;;;;;;5054695;28;20386;-71
2023/04/24 02:28:10;;;;;;;5.57;4.50;;;9.00;99.90;;;;;;5036853;28;20087;-71
2023/04/24 02:30:35;;;;;;;6.32;3.88;;;9.00;99.90;;;;;;5052865;28;20091;-72
2023/04/24 02:33:01;;;;;;;7.00;4.80;;;9.00;99.90;;;;;;5053301;28;20072;-71
2023/04/24 02:35:26;;;;;;;9.63;4.45;;;9.00;99.90;;;;;;5053242;28;20044;-72
2023/04/24 02:37:52;;;;;;;5.30;4.05;;;9.00;99.90;;;;;;5053980;28;20048;-72
2023/04/24 02:40:18;;;;;;;5.43;4.38;;;9.10;99.90;;;;;;5054551;28;20041;-71
2023/04/24 02:42:43;;;;;;;7.18;5.43;;;9.00;99.90;;;;;;5053947;28;20041;-73
2023/04/24 02:45:09;;;;;;;6.10;4.40;;;9.10;99.90;;;;;;5053812;28;20171;-71
2023/04/24 02:47:35;;;;;;;6.63;4.90;;;9.00;99.90;;;;;;5052545;28;20052;-71
2023/04/24 02:50:02;;;;;;;6.28;3.95;;;9.00;99.90;;;;;;5052790;28;20060;-72
2023/04/24 02:52:28;;;;;;;6.57;4.40;;;9.00;99.90;;;;;;5053712;28;20045;-71
2023/04/24 02:54:54;;;;;;;6.07;4.15;;;9.00;99.90;;;;;;5052945;28;20132;-72
2023/04/24 02:57:19;;;;;;;5.82;3.85;;;9.00;99.90;;;;;;5052739;28;20497;-71
2023/04/24 02:59:45;;;;;;;7.00;4.15;;;9.00;99.90;;;;;;5054380;28;20041;-72
2023/04/24 03:02:11;;;;;;;5.57;4.05;;;9.00;99.90;;;;;;5052904;28;20473;-72
2023/04/24 03:04:36;;;;;;;4.82;4.05;;;9.00;99.90;;;;;;5052330;28;20526;-72
2023/04/24 03:07:02;;;;;;;6.88;4.35;;;9.00;99.90;;;;;;5052580;28;20136;-72
2023/04/24 03:09:28;;;;;;;5.60;4.00;;;9.00;99.90;;;;;;5052340;28;20059;-71
2023/04/24 03:11:53;;;;;;;3.92;3.33;;;8.90;99.90;;;;;;5054054;28;20457;-72
2023/04/24 03:14:19;;;;;;;4.57;3.47;;;8.90;99.90;;;;;;5052506;28;20498;-71
2023/04/24 03:16:45;;;;;;;4.15;3.33;;;8.90;99.90;;;;;;5052257;28;20045;-71
2023/04/24 03:19:10;;;;;;;5.15;3.97;;;8.90;99.90;;;;;;5052132;28;20048;-71
2023/04/24 03:21:40;;;;;;;4.75;3.45;;;8.90;99.90;;;;;;5053912;28;20052;-71
2023/04/24 03:24:09;;;;;;;5.60;3.53;;;8.80;99.90;;;;;;5053005;28;20091;-71
2023/04/24 03:26:35;;;;;;;4.68;3.45;;;8.80;99.90;;;;;;5053355;28;20057;-71
2023/04/24 03:29:01;;;;;;;5.45;3.75;;;8.80;99.90;;;;;;5053853;28;20127;-71
2023/04/24 03:31:26;;;;;;;5.55;3.80;;;8.80;99.90;;;;;;5051926;28;20089;-72
2023/04/24 03:33:52;;;;;;;5.50;3.40;;;8.80;99.90;;;;;;5053250;28;20053;-71
2023/04/24 03:36:19;;;;;;;5.85;3.72;;;8.80;99.90;;;;;;5052895;28;20044;-72
2023/04/24 03:38:45;;;;;;;4.85;3.78;;;8.80;99.90;;;;;;5052238;28;20053;-72
2023/04/24 03:41:11;;;;;;;5.15;3.60;;;8.80;99.90;;;;;;5053117;28;20134;-72
2023/04/24 03:43:37;;;;;;;5.78;4.30;;;8.80;99.90;;;;;;5053506;28;20414;-72
2023/04/24 03:46:04;;;;;;;5.65;4.25;;;8.80;99.90;;;;;;5053690;28;20385;-71
2023/04/24 03:48:29;;;;;;;4.95;3.72;;;8.80;99.90;;;;;;5052171;28;20049;-72
2023/04/24 03:50:55;;;;;;;4.93;3.80;;;8.80;99.90;;;;;;5053179;28;20366;-72
2023/04/24 03:53:21;;;;;;;6.85;4.32;;;8.80;99.90;;;;;;5053040;28;20091;-71
2023/04/24 03:55:47;;;;;;;5.63;4.35;;;8.80;99.90;;;;;;5052932;28;20049;-72
2023/04/24 03:58:15;;;;;;;5.43;3.88;;;8.80;99.90;;;;;;5051971;28;20037;-72
2023/04/24 04:00:41;;;;;;;5.88;4.13;;;8.70;99.90;;;;;;5053189;28;20041;-71
2023/04/24 04:03:07;;;;;;;5.03;3.80;;;8.70;99.90;;;;;;5051896;28;20520;-71
2023/04/24 04:05:32;;;;;;;5.47;4.35;;;8.70;99.90;;;;;;5051986;28;20388;-71
2023/04/24 04:07:58;;;;;;;6.15;4.70;;;8.70;99.90;;;;;;5052831;28;20075;-72
2023/04/24 04:10:24;;;;;;;5.30;3.95;;;8.80;99.90;;;;;;5051683;28;20045;-72
2023/04/24 04:12:49;;;;;;;4.72;4.00;;;8.80;99.90;;;;;;5052765;28;20136;-71
2023/04/24 04:15:15;;;;;;;6.22;4.20;;;8.80;99.90;;;;;;5052832;28;20507;-72
2023/04/24 04:17:41;;;;;;;4.93;4.03;;;8.80;99.90;;;;;;5051660;28;20427;-71
2023/04/24 04:20:09;;;;;;;5.15;3.67;;;8.90;99.90;;;;;;5035335;28;20056;-72
2023/04/24 04:22:36;;;;;;;5.25;3.72;;;8.90;99.90;;;;;;5053361;28;20366;-72
2023/04/24 04:25:02;;;;;;;5.32;4.07;;;8.90;99.90;;;;;;5052963;28;20181;-72
2023/04/24 04:27:28;;;;;;;4.53;3.35;;;8.90;99.90;;;;;;5053328;28;20049;-74
2023/04/24 04:29:56;;;;;;;4.30;3.10;;;8.90;99.90;;;;;;5052596;28;20045;-73
2023/04/24 04:32:22;;;;;;;5.03;4.20;;;8.90;99.90;;;;;;5056181;28;20056;-71
2023/04/24 04:34:49;;;;;;;5.97;4.15;;;8.90;99.90;;;;;;5056519;28;20428;-71
2023/04/24 04:37:15;;;;;;;7.97;4.60;;;8.80;99.90;;;;;;5056299;28;20434;-72
2023/04/24 04:39:41;;;;;;;5.28;3.58;;;8.80;99.90;;;;;;5056103;28;20154;-71
2023/04/24 04:42:06;;;;;;;6.43;4.13;;;8.80;99.90;;;;;;5056200;28;20064;-71
2023/04/24 04:44:32;;;;;;;5.78;4.15;;;8.80;99.90;;;;;;5054972;28;20372;-71
2023/04/24 04:47:00;;;;;;;5.85;4.22;;;8.80;99.90;;;;;;5054183;28;20047;-73
2023/04/24 04:49:28;;;;;;;6.80;4.45;;;8.80;99.90;;;;;;5055790;28;20052;-71
2023/04/24 04:51:54;;;;;;;5.97;4.20;;;8.80;99.90;;;;;;5054420;28;20102;-71
2023/04/24 04:54:19;;;;;;;5.57;4.05;;;8.70;99.90;;;;;;5056234;28;20487;-71
2023/04/24 04:56:45;;;;;;;5.18;3.55;;;8.70;99.90;;;;;;5055801;28;20072;-71
2023/04/24 04:59:12;;;;;;;5.97;3.92;;;8.70;99.90;;;;;;5055662;28;20110;-71
2023/04/24 05:01:37;;;;;;;5.65;4.40;;;8.70;99.90;;;;;;5055793;28;20049;-71
2023/04/24 05:04:03;;;;;;;6.13;4.15;;;8.70;99.90;;;;;;5055723;28;20056;-71
2023/04/24 05:06:30;;;;;;;5.95;4.25;;;8.70;99.90;;;;;;5055706;28;20041;-72
2023/04/24 05:08:57;;;;;;;6.15;4.20;;;8.70;99.90;;;;;;5038800;28;20049;-72
2023/04/24 05:11:23;;;;;;;5.38;4.00;;;8.70;99.90;;;;;;5053938;28;20516;-72
2023/04/24 05:13:48;;;;;;;6.38;4.53;;;8.70;99.90;;;;;;5055412;28;20088;-72
2023/04/24 05:16:14;;;;;;;6.57;4.40;;;8.80;99.90;;;;;;5055582;28;20091;-71
2023/04/24 05:18:40;;;;;;;5.78;4.03;;;8.80;99.90;;;;;;5055526;28;20434;-71
2023/04/24 05:21:06;;;;;;;5.65;3.63;;;8.80;99.90;;;;;;5055401;28;20650;-72
2023/04/24 05:23:31;;;;;;;5.15;3.72;;;8.90;99.90;;;;;;5054688;28;20135;-72
2023/04/24 05:25:57;;;;;;;4.90;3.53;;;8.90;99.90;;;;;;5054244;28;20470;-72
2023/04/24 05:28:23;;;;;;;7.75;4.00;;;8.90;99.90;;;;;;5055288;28;20401;-71
2023/04/24 05:30:49;;;;;;;6.03;3.83;;;8.90;99.90;;;;;;5056007;28;20102;-71
2023/04/24 05:33:15;;;;;;;5.40;4.03;;;9.00;99.90;;;;;;5056276;28;20122;-73
2023/04/24 05:35:46;;;;;;;4.75;3.58;;;9.00;99.90;;;;;;5055697;28;20044;-72
2023/04/24 05:38:12;;;;;;;4.68;3.25;;;9.00;99.90;;;;;;5055765;28;20041;-71
2023/04/24 05:40:38;;;;;;;4.07;2.90;;;9.00;99.90;;;;;;5055411;28;20045;-71
2023/04/24 05:43:04;;;;;;;4.13;3.00;;;9.00;99.90;;;;;;5053304;28;20127;-72
2023/04/24 05:45:30;;;;;;;3.63;2.35;;;9.00;99.90;;;;;;5054995;28;20087;-71
2023/04/24 05:47:56;;;;;;;4.65;2.85;;;9.00;99.90;;;;;;5054900;28;20389;-72
2023/04/24 05:50:22;;;;;;;4.00;2.75;;;9.10;99.90;;;;;;5053412;28;20045;-71
2023/04/24 05:52:47;;;;;;;3.70;2.67;;;9.10;99.90;;;;;;5055270;28;20060;-71
2023/04/24 05:55:13;;;;;;;3.35;2.28;;;9.10;99.90;;;;;;5053491;28;20045;-72
2023/04/24 05:57:39;;;;;;;3.38;2.45;;;9.10;99.90;;;;;;5054782;28;20048;-72
2023/04/24 06:00:05;;;;;;;3.08;2.10;;;9.10;99.90;;;;;;5054603;28;20040;-71
2023/04/24 06:02:32;;;;;;;2.78;2.35;;;9.00;99.90;;;;;;5054729;28;20118;-72
2023/04/24 06:04:59;;;;;;;3.75;2.60;;;9.00;99.90;;;;;;5053297;28;20083;-71
2023/04/24 06:07:26;;;;;;;4.85;2.80;;;9.10;99.90;;;;;;5055056;28;20049;-72
2023/04/24 06:09:52;;;;;;;3.42;2.30;;;9.00;99.90;;;;;;5054536;28;20044;-71
2023/04/24 06:12:17;;;;;;;3.97;2.72;;;8.90;99.90;;;;;;5054664;28;20071;-72
2023/04/24 06:14:43;;;;;;;3.20;2.25;;;8.90;99.90;;;;;;5054707;28;20048;-71
2023/04/24 06:17:09;;;;;;;3.92;2.30;;;8.90;99.90;;;;;;5055157;28;20044;-72
2023/04/24 06:19:35;;;;;;;3.50;2.40;;;8.90;99.90;;;;;;5054245;28;20048;-70
2023/04/24 06:22:00;;;;;;;3.75;2.08;;;8.90;99.90;;;;;;5054178;28;20041;-71
2023/04/24 06:24:29;;;;;;;3.08;2.08;;;8.90;99.90;;;;;;5054666;28;20140;-79
2023/04/24 06:26:56;;;;;;;3.08;2.15;;;8.90;99.90;;;;;;5054714;28;20095;-80
2023/04/24 06:29:22;;;;;;;3.40;2.10;;;8.90;99.90;;;;;;5053749;28;20166;-78
2023/04/24 06:31:47;;;;;;;3.10;1.60;;;8.90;99.90;;;;;;5054245;28;20479;-79
2023/04/24 06:34:13;;;;;;;2.63;1.75;;;8.90;99.90;;;;;;5037222;28;20053;-74
2023/04/24 06:36:39;;;;;;;3.67;1.75;;;8.90;99.90;;;;;;5054495;28;20040;-73
2023/04/24 06:39:05;;;;;;;3.03;1.80;;;8.90;99.90;;;;;;5053816;28;20090;-75
2023/04/24 06:41:30;;;;;;;2.35;1.45;;;8.90;99.90;;;;;;5036618;28;20041;-73
2023/04/24 06:43:56;;;;;;;2.03;1.20;;;9.00;99.90;;;;;;5052901;28;20052;-74
2023/04/24 06:46:23;;;;;;;2.15;1.27;;;8.90;99.90;;;;;;5053807;28;20184;-73
2023/04/24 06:48:50;;;;;;;2.00;1.10;;;8.90;99.90;;;;;;5036187;28;20060;-72
2023/04/24 06:51:17;;;;;;;2.28;1.20;;;8.90;99.90;;;;;;5054545;28;20419;-74
2023/04/24 06:53:43;;;;;;;2.78;1.40;;;8.90;99.90;;;;;;5053444;28;20461;-73
2023/04/24 06:56:09;;;;;;;2.08;1.08;;;8.90;99.90;;;;;;5053562;28;20079;-74
2023/04/24 06:58:35;;;;;;;2.30;1.30;;;8.90;99.90;;;;;;5053429;28;20358;-75
2023/04/24 07:01:00;;;;;;;2.42;1.50;;;8.90;99.90;;;;;;5053198;28;20373;-74
2023/04/24 07:03:26;;;;;;;3.13;1.80;;;8.90;99.90;;;;;;5052899;28;20049;-75
2023/04/24 07:05:53;;;;;;;2.83;1.58;;;8.90;99.90;;;;;;5052394;28;20043;-74
2023/04/24 07:08:20;;;;;;;3.15;1.65;;;8.80;99.90;;;;;;5052594;28;20091;-75
2023/04/24 07:10:46;;;;;;;2.88;1.52;;;8.90;99.90;;;;;;5054407;28;20378;-74
2023/04/24 07:13:11;;;;;;;2.38;1.58;;;8.90;99.90;;;;;;5052319;28;20053;-77
2023/04/24 07:15:37;;;;;;;2.33;1.45;;;8.80;99.90;;;;;;5052920;28;20045;-78
2023/04/24 07:18:03;;;;;;;2.92;1.83;;;8.80;99.90;;;;;;5052584;28;20078;-77
2023/04/24 07:20:29;;;;;;;2.33;1.50;;;8.80;99.90;;;;;;5053219;28;20478;-75
2023/04/24 07:22:54;;;;;;;2.88;1.60;;;8.80;99.90;;;;;;5052594;28;20044;-72
2023/04/24 07:25:20;;;;;;;2.88;1.27;;;8.80;99.90;;;;;;5052863;28;20056;-73
2023/04/24 07:27:46;;;;;;;2.88;1.60;;;8.80;99.90;;;;;;5053199;28;20217;-72
2023/04/24 07:30:11;;;;;;;2.10;1.25;;;8.90;99.90;;;;;;5053801;28;20041;-79
2023/04/24 07:32:37;;;;;;;2.10;1.10;;;8.90;99.90;;;;;;5035589;28;20045;-82
2023/04/24 07:35:03;;;;;;;3.47;1.48;;;8.90;99.90;;;;;;5053126;28;20072;-75
2023/04/24 07:37:29;;;;;;;2.38;1.30;;;8.90;99.90;;;;;;5052178;28;20556;-77
2023/04/24 07:39:55;;;;;;;2.67;1.70;;;8.90;99.90;;;;;;5053108;28;20439;-77
2023/04/24 07:42:20;;;;;;;2.47;1.48;;;9.00;99.90;;;;;;5053127;28;20045;-81
2023/04/24 07:44:47;;;;;;;2.47;1.63;;;9.20;99.90;;;;;;5051806;28;20191;-80
2023/04/24 07:47:15;;;;;;;3.42;1.77;;;9.20;99.90;;;;;;5052288;28;20052;-79
2023/04/24 07:49:44;;;;;;;3.45;1.67;;;9.30;99.90;;;;;;5053472;28;20448;-79
2023/04/24 07:52:10;;;;;;;2.50;1.50;;;9.30;99.90;;;;;;5053405;28;20053;-77
2023/04/24 07:54:37;;;;;;;3.45;1.65;;;9.30;99.90;;;;;;5052206;28;20099;-78
2023/04/24 07:57:03;;;;;;;2.90;1.77;;;9.40;99.90;;;;;;5053136;28;20394;-78
2023/04/24 07:59:28;;;;;;;2.90;1.65;;;9.40;99.90;;;;;;5052904;28;20037;-78
2023/04/24 08:01:54;;;;;;;4.32;1.58;;;9.50;99.90;;;;;;5053801;28;20049;-75
2023/04/24 08:04:20;;;;;;;2.47;1.45;;;9.50;99.90;;;;;;5053091;28;20048;-78
2023/04/24 08:06:48;;;;;;;3.35;1.75;;;9.50;99.90;;;;;;5056523;28;20053;-75
2023/04/24 08:09:13;;;;;;;4.75;2.35;;;9.50;99.90;;;;;;5056664;28;20045;-75
2023/04/24 08:11:39;;;;;;;2.78;1.58;;;9.50;99.90;;;;;;5057391;28;20052;-75
2023/04/24 08:14:05;;;;;;;3.17;1.70;;;9.60;99.90;;;;;;5055315;28;20132;-72
2023/04/24 08:16:32;;;;;;;2.85;1.48;;;9.50;99.90;;;;;;5056261;28;20051;-71
2023/04/24 08:18:58;;;;;;;2.35;1.40;;;9.50;99.90;;;;;;5056596;28;20037;-72
2023/04/24 08:21:26;;;;;;;2.40;1.42;;;9.40;99.90;;;;;;5056543;28;20041;-73
2023/04/24 08:23:52;;;;;;;3.25;1.55;;;9.40;99.90;;;;;;5055513;28;20053;-73
2023/04/24 08:26:18;;;;;;;3.30;1.65;;;9.50;99.90;;;;;;5056482;28;20083;-72
2023/04/24 08:28:44;;;;;;;2.50;1.70;;;9.50;99.90;;;;;;5056359;28;20191;-72
2023/04/24 08:31:10;;;;;;;3.00;1.52;;;9.50;99.90;;;;;;5056333;28;20401;-72
2023/04/24 08:33:35;;;;;;;4.70;1.90;;;9.50;99.90;;;;;;5056151;28;20098;-72
2023/04/24 08:36:05;;;;;;;2.90;1.60;;;9.60;99.90;;;;;;5056346;28;20489;-72
2023/04/24 08:38:31;;;;;;;2.83;1.55;;;9.60;99.90;;;;;;5056251;28;20049;-71
2023/04/24 08:40:59;;;;;;;2.20;1.13;;;9.60;99.90;;;;;;5056217;28;20076;-71
2023/04/24 08:43:26;;;;;;;2.45;1.30;;;9.50;99.90;;;;;;5056760;28;20091;-72
2023/04/24 08:45:52;;;;;;;3.08;1.25;;;9.40;99.90;;;;;;5055155;28;20044;-72
2023/04/24 08:48:18;;;;;;;3.80;1.38;;;9.40;99.90;;;;;;5055117;28;20048;-72
2023/04/24 08:50:44;;;;;;;3.50;1.20;;;9.40;99.90;;;;;;5039267;28;20049;-73
2023/04/24 08:53:10;;;;;;;2.35;1.40;;;9.40;99.90;;;;;;5055007;28;20393;-74
2023/04/24 08:55:37;;;;;;;3.50;1.42;;;9.40;99.90;;;;;;5055231;28;20048;-75
2023/04/24 08:58:04;;;;;;;4.82;1.80;;;9.40;99.90;;;;;;5055965;28;20157;-73
2023/04/24 09:00:30;;;;;;;3.55;1.80;;;9.30;99.90;;;;;;5054560;28;20052;-72
2023/04/24 09:02:56;;;;;;;3.33;2.15;;;9.30;99.90;;;;;;5056331;28;20519;-72
2023/04/24 09:05:25;;;;;;;3.67;2.35;;;9.30;99.90;;;;;;5054859;28;20123;-72
2023/04/24 09:07:55;;;;;;;7.18;3.30;;;9.20;99.90;;;;;;5055669;28;20131;-74
2023/04/24 09:10:25;;;;;;;8.35;3.45;;;9.20;99.90;;;;;;5054956;28;20055;-73
2023/04/24 09:12:52;;;;;;;7.65;4.30;;;9.20;99.90;;;;;;5055603;28;20107;-72
2023/04/24 09:15:20;;;;;;;7.00;4.07;;;9.20;99.90;;;;;;5054066;28;20059;-72
2023/04/24 09:17:46;;;;;;;8.07;4.88;;;9.20;99.90;;;;;;5054822;28;20059;-74
2023/04/24 09:20:12;;;;;;;8.90;5.03;;;9.20;99.90;;;;;;5055400;28;20047;-73
2023/04/24 09:22:38;;;;;;;9.98;5.28;;;9.30;99.90;;;;;;5055783;28;20048;-73
2023/04/24 09:25:08;;;;;;;10.73;4.97;;;9.30;99.90;;;;;;5055309;28;20053;-73
2023/04/24 09:27:35;;;;;;;9.05;4.75;;;9.30;99.90;;;;;;5037569;28;20052;-72
2023/04/24 09:30:02;;;;;;;9.20;4.53;;;9.20;99.90;;;;;;5037821;28;20067;-72
2023/04/24 09:32:29;;;;;;;9.75;5.03;;;9.20;99.90;;;;;;5055765;28;20106;-71
2023/04/24 09:35:07;;;;;;;11.05;5.53;;;9.20;99.90;;;;;;5055320;28;20076;-72
2023/04/24 09:37:36;;;;;;;10.63;5.78;;;9.30;99.90;;;;;;5055214;28;20530;-74
2023/04/24 09:40:14;;;;;;;9.27;5.50;;;9.30;99.90;;;;;;5053930;28;20045;-74
2023/04/24 09:42:45;;;;;;;8.70;5.15;;;9.30;99.90;;;;;;5055103;28;20052;-72
2023/04/24 09:45:13;;;;;;;8.05;5.57;;;9.10;99.90;;;;;;5055160;28;20048;-73
2023/04/24 09:47:40;;;;;;;10.35;6.18;;;9.00;99.90;;;;;;5055171;28;20049;-72
2023/04/24 09:50:16;;;;;;;11.55;6.70;;;8.80;99.90;;;;;;5054927;28;20128;-72
2023/04/24 09:52:44;;;;;;;11.63;7.25;;;8.80;99.90;;;;;;5054873;28;20110;-73
2023/04/24 09:55:27;;;;;;;12.73;6.95;;;8.70;99.90;;;;;;5054723;28;20049;-72
2023/04/24 09:58:01;;;;;;;15.02;7.85;;;8.70;99.90;;;;;;5054730;28;20102;-73
2023/04/24 10:00:29;;;;;;;13.00;8.60;;;8.60;99.90;;;;;;5053845;28;20122;-74
2023/04/24 10:02:59;;;;;;;14.60;8.43;;;8.60;99.90;;;;;;5053720;28;20132;-72
2023/04/24 10:05:32;;;;;;;15.05;8.85;;;8.60;99.90;;;;;;5053995;28;20079;-73
2023/04/24 10:08:05;;;;;;;13.02;8.20;;;8.60;99.90;;;;;;5054870;28;20136;-72
2023/04/24 10:10:32;;;;;;;15.52;8.20;;;8.60;99.90;;;;;;5054609;28;20041;-73
2023/04/24 10:13:00;;;;;;;13.95;8.20;;;8.70;99.90;;;;;;5054558;28;20053;-72
2023/04/24 10:15:26;;;;;;;13.93;8.02;;;8.60;99.90;;;;;;5054950;28;20110;-74
2023/04/24 10:17:53;;;;;;;11.35;6.72;;;8.60;99.90;;;;;;5054413;28;20090;-72
2023/04/24 10:20:23;;;;;;;13.00;7.10;;;8.60;99.90;;;;;;5054368;28;20041;-73
2023/04/24 10:22:51;;;;;;;10.70;6.60;;;8.60;99.90;;;;;;5053567;28;20059;-73
2023/04/24 10:25:22;;;;;;;16.05;7.90;;;8.50;99.90;;;;;;5053942;28;20053;-72
2023/04/24 10:27:49;;;;;;;12.07;6.47;;;8.50;99.90;;;;;;5052488;28;20056;-73
2023/04/24 10:30:16;;;;;;;10.60;5.93;;;8.50;99.90;;;;;;5053908;28;20056;-73
2023/04/24 10:32:42;;;;;;;8.82;5.55;;;8.50;99.90;;;;;;5054345;28;20052;-72
2023/04/24 10:35:12;;;;;;;8.70;5.30;;;8.50;99.90;;;;;;5053128;28;20504;-73
2023/04/24 10:37:45;;;;;;;10.13;5.22;;;8.60;99.90;;;;;;5053309;28;20433;-78
2023/04/24 10:40:15;;;;;;;13.02;6.70;;;8.50;99.90;;;;;;5053129;28;20048;-80
2023/04/24 10:42:42;;;;;;;13.07;6.55;;;8.50;99.90;;;;;;5052968;28;20044;-80
2023/04/24 10:45:21;;;;;;;9.38;5.90;;;8.60;99.90;;;;;;5052551;28;20048;-77
2023/04/24 10:47:55;;;;;;;8.73;5.18;;;8.70;99.90;;;;;;5052990;28;20049;-79
2023/04/24 10:50:21;;;;;;;11.82;6.60;;;8.70;99.90;;;;;;5052749;28;20045;-74
2023/04/24 10:52:50;;;;;;;8.32;5.50;;;8.80;99.90;;;;;;5036306;28;20053;-73
2023/04/24 10:55:16;;;;;;;9.30;5.55;;;8.80;99.90;;;;;;5053615;28;20067;-72
2023/04/24 10:58:04;;;;;;;7.55;5.22;;;8.90;99.90;;;;;;5053696;28;20469;-73
2023/04/24 11:00:30;;;;;;;7.80;4.30;;;8.90;99.90;;;;;;5052407;28;20131;-74
2023/04/24 11:02:57;;;;;;;11.23;4.97;;;8.80;99.90;;;;;;5019513;28;20136;-74
2023/04/24 11:05:55;;;;;;;7.38;4.25;;;8.80;99.90;;;;;;5052876;28;20075;-75
2023/04/24 11:08:28;;;;;;;10.10;4.32;;;8.80;99.90;;;;;;5052473;28;20049;-73
2023/04/24 11:11:15;;;;;;;6.50;3.88;;;8.80;99.90;;;;;;5052877;28;20055;-74
2023/04/24 11:13:56;;;;;;;6.72;3.50;;;8.70;99.90;;;;;;5052358;28;20041;-77
2023/04/24 11:16:28;;;;;;;6.82;3.55;;;8.60;99.90;;;;;;5035540;28;20370;-76
2023/04/24 11:19:05;;;;;;;5.38;2.80;;;8.60;99.90;;;;;;5052701;28;20060;-78
2023/04/24 11:21:44;;;;;;;;;;;8.60;99.90;;;;;;5052908;28;20074;-76
2023/04/24 11:24:31;;;;;;;6.57;2.40;;;8.60;99.90;;;;;;5053083;28;19927;-77
2023/04/24 11:27:19;;;;;;;5.40;2.70;;;8.60;99.90;;;;;;5035428;28;20064;-76
2023/04/24 11:29:57;;;;;;;4.40;2.30;;;8.60;99.90;;;;;;5052529;28;20053;-77
2023/04/24 11:32:37;;;;;;;9.70;2.40;;;8.70;99.90;;;;;;5053153;28;20406;-76
2023/04/24 11:35:05;;;;;;;6.80;2.80;;;8.80;99.90;;;;;;5053985;28;20079;-76
2023/04/24 11:37:38;;;;;;;5.90;2.88;;;9.00;99.90;;;;;;5052078;28;20118;-75
2023/04/24 11:40:07;;;;;;;8.77;3.20;;;9.10;99.90;;;;;;5038286;28;20049;-77
2023/04/24 11:42:41;;;;;;;7.13;2.50;;;9.20;99.90;;;;;;5056063;28;20052;-76
2023/04/24 11:45:15;;;;;;;6.22;2.40;;;9.20;99.90;;;;;;5056521;28;20089;-75
2023/04/24 11:47:41;;;;;;;5.32;2.60;;;9.10;99.90;;;;;;5056742;28;20481;-75
2023/04/24 11:50:13;;;;;;;3.45;1.90;;;9.00;99.90;;;;;;5056150;28;20053;-76
2023/04/24 11:52:49;;;;;;;6.40;2.40;;;8.90;99.90;;;;;;5056935;28;20059;-75
2023/04/24 11:55:15;;;;;;;6.82;2.70;;;8.80;99.90;;;;;;5056062;28;20382;-74
2023/04/24 11:57:45;;;;;;;3.28;1.50;;;8.80;99.90;;;;;;5056974;28;20067;-74
2023/04/24 12:00:34;;;;;;;4.97;2.17;;;8.80;99.90;;;;;;5056888;28;20045;-73
2023/04/24 12:03:06;;;;;;;3.90;1.85;;;8.80;99.90;;;;;;5024036;28;20045;-74
2023/04/24 12:05:32;;;;;;;8.32;2.58;;;8.80;99.90;;;;;;5055497;28;20044;-73
2023/04/24 12:07:58;;;;;;;5.38;1.98;;;8.80;99.90;;;;;;5055593;28;20044;-74
2023/04/24 12:10:25;;;;;;;7.22;2.28;;;8.80;99.90;;;;;;5055799;28;20053;-73
2023/04/24 12:12:52;;;;;;;4.78;1.65;;;8.90;99.90;;;;;;5055784;28;20389;-74
2023/04/24 12:15:19;;;;;;;5.15;2.42;;;9.00;99.90;;;;;;5055826;28;20052;-75
2023/04/24 12:17:45;;;;;;;6.07;2.05;;;9.20;99.90;;;;;;5055577;28;20044;-76
2023/04/24 12:20:11;;;;;;;6.60;2.00;;;9.20;99.90;;;;;;5055439;28;20041;-74
2023/04/24 12:22:54;;;;;;;2.85;1.80;;;9.20;99.90;;;;;;5055263;28;20052;-75
2023/04/24 12:25:22;;;;;;;4.95;1.60;;;9.10;99.90;;;;;;5055447;28;20049;-74
2023/04/24 12:28:11;;;;;;;5.20;2.10;;;9.00;99.90;;;;;;5055670;28;20053;-75
2023/04/24 12:31:03;;;;;;;4.38;1.58;;;9.00;99.90;;;;;;5056407;28;20044;-76
2023/04/24 12:33:33;;;;;;;4.03;2.00;;;8.90;99.90;;;;;;5033302;28;20118;-73
2023/04/24 12:35:59;;;;;;;4.22;1.40;;;8.80;99.90;;;;;;5056419;28;20052;-74
2023/04/24 12:38:27;;;;;;;2.80;1.40;;;8.80;99.90;;;;;;5056362;28;20048;-74
2023/04/24 12:41:07;;;;;;;3.10;1.23;;;8.70;99.90;;;;;;5055014;28;20045;-75
2023/04/24 12:43:33;;;;;;;3.80;1.30;;;8.70;99.90;;;;;;5055542;28;20087;-74
2023/04/24 12:45:59;;;;;;;3.28;1.40;;;8.80;99.90;;;;;;5055247;28;20049;-74
2023/04/24 12:48:28;;;;;;;3.63;1.77;;;8.80;99.90;;;;;;5055907;28;20055;-75
2023/04/24 12:50:55;;;;;;;2.65;1.42;;;9.00;99.90;;;;;;5021240;28;20045;-73
2023/04/24 12:53:20;;;;;;;5.30;1.50;;;9.00;99.90;;;;;;5054759;28;20120;-74
2023/04/24 12:55:52;;;;;;;3.53;1.52;;;9.00;99.90;;;;;;5055661;28;20127;-73
2023/04/24 12:58:21;;;;;;;5.32;1.55;;;9.10;99.90;;;;;;5038319;28;20048;-73